sensor_id;sensor_type;location;lat;lon;timestamp;temperature;humidity
22006;DHT22;11167;46.988;15.470;2022-12-07T00:00:30;5.80;93.20
22006;DHT22;11167;46.988;15.470;2022-12-07T00:02:31;5.80;93.20
22006;DHT22;11167;46.988;15.470;2022-12-07T00:04:32;5.80;93.30
22006;DHT22;11167;46.988;15.470;2022-12-07T00:06:43;5.80;93.30
22006;DHT22;11167;46.988;15.470;2022-12-07T00:08:41;5.80;93.30
22006;DHT22;11167;46.988;15.470;2022-12-07T00:10:42;5.80;93.20
22006;DHT22;11167;46.988;15.470;2022-12-07T00:12:43;5.80;93.30
22006;DHT22;11167;46.988;15.470;2022-12-07T00:14:44;5.80;93.30
22006;DHT22;11167;46.988;15.470;2022-12-07T00:16:45;5.80;93.30
22006;DHT22;11167;46.988;15.470;2022-12-07T00:18:48;5.80;93.30
22006;DHT22;11167;46.988;15.470;2022-12-07T00:20:49;5.80;93.20
22006;DHT22;11167;46.988;15.470;2022-12-07T00:22:51;5.80;93.60
22006;DHT22;11167;46.988;15.470;2022-12-07T00:24:52;5.80;93.30
22006;DHT22;11167;46.988;15.470;2022-12-07T00:26:53;5.80;93.30
22006;DHT22;11167;46.988;15.470;2022-12-07T00:28:57;5.80;93.30
22006;DHT22;11167;46.988;15.470;2022-12-07T00:33:05;5.80;93.30
22006;DHT22;11167;46.988;15.470;2022-12-07T00:35:07;5.70;93.20
22006;DHT22;11167;46.988;15.470;2022-12-07T00:37:08;5.70;93.20
22006;DHT22;11167;46.988;15.470;2022-12-07T00:39:10;5.70;93.20
22006;DHT22;11167;46.988;15.470;2022-12-07T00:41:17;5.70;93.20
22006;DHT22;11167;46.988;15.470;2022-12-07T00:43:18;5.70;93.20
22006;DHT22;11167;46.988;15.470;2022-12-07T00:45:19;5.70;93.20
22006;DHT22;11167;46.988;15.470;2022-12-07T00:47:20;5.70;93.20
22006;DHT22;11167;46.988;15.470;2022-12-07T00:49:22;5.70;93.30
22006;DHT22;11167;46.988;15.470;2022-12-07T00:51:24;5.70;93.20
22006;DHT22;11167;46.988;15.470;2022-12-07T00:53:26;5.70;93.20
22006;DHT22;11167;46.988;15.470;2022-12-07T00:55:28;5.70;93.20
22006;DHT22;11167;46.988;15.470;2022-12-07T00:57:30;5.70;93.20
22006;DHT22;11167;46.988;15.470;2022-12-07T00:59:31;5.70;93.20
22006;DHT22;11167;46.988;15.470;2022-12-07T01:01:35;5.70;93.20
22006;DHT22;11167;46.988;15.470;2022-12-07T01:03:38;5.60;93.20
22006;DHT22;11167;46.988;15.470;2022-12-07T01:05:39;5.60;93.20
22006;DHT22;11167;46.988;15.470;2022-12-07T01:07:40;5.60;93.20
22006;DHT22;11167;46.988;15.470;2022-12-07T01:09:42;5.60;93.20
22006;DHT22;11167;46.988;15.470;2022-12-07T01:11:43;5.60;93.20
22006;DHT22;11167;46.988;15.470;2022-12-07T01:13:44;5.60;93.20
22006;DHT22;11167;46.988;15.470;2022-12-07T01:15:45;5.60;93.20
22006;DHT22;11167;46.988;15.470;2022-12-07T01:17:47;5.60;93.20
22006;DHT22;11167;46.988;15.470;2022-12-07T01:19:48;5.60;93.20
22006;DHT22;11167;46.988;15.470;2022-12-07T01:21:49;5.60;93.20
22006;DHT22;11167;46.988;15.470;2022-12-07T01:23:50;5.60;93.20
22006;DHT22;11167;46.988;15.470;2022-12-07T01:25:56;5.60;93.20
22006;DHT22;11167;46.988;15.470;2022-12-07T01:27:58;5.60;93.20
22006;DHT22;11167;46.988;15.470;2022-12-07T01:29:59;5.60;93.20
22006;DHT22;11167;46.988;15.470;2022-12-07T01:32:00;5.60;93.20
22006;DHT22;11167;46.988;15.470;2022-12-07T01:34:01;5.60;93.20
22006;DHT22;11167;46.988;15.470;2022-12-07T01:36:08;5.60;93.60
22006;DHT22;11167;46.988;15.470;2022-12-07T01:38:10;5.60;93.20
22006;DHT22;11167;46.988;15.470;2022-12-07T01:40:12;5.50;93.10
22006;DHT22;11167;46.988;15.470;2022-12-07T01:42:13;5.50;92.80
22006;DHT22;11167;46.988;15.470;2022-12-07T01:44:23;5.50;93.10
22006;DHT22;11167;46.988;15.470;2022-12-07T01:46:25;5.50;93.20
22006;DHT22;11167;46.988;15.470;2022-12-07T01:48:38;5.50;93.10
22006;DHT22;11167;46.988;15.470;2022-12-07T01:50:40;5.50;93.10
22006;DHT22;11167;46.988;15.470;2022-12-07T01:52:44;5.50;93.10
22006;DHT22;11167;46.988;15.470;2022-12-07T01:54:47;5.50;93.10
22006;DHT22;11167;46.988;15.470;2022-12-07T01:56:51;5.40;93.10
22006;DHT22;11167;46.988;15.470;2022-12-07T01:58:55;5.50;93.10
22006;DHT22;11167;46.988;15.470;2022-12-07T02:00:57;5.40;93.10
22006;DHT22;11167;46.988;15.470;2022-12-07T02:03:04;5.40;93.10
22006;DHT22;11167;46.988;15.470;2022-12-07T02:05:06;5.40;93.10
22006;DHT22;11167;46.988;15.470;2022-12-07T02:07:08;5.40;93.10
22006;DHT22;11167;46.988;15.470;2022-12-07T02:09:09;5.40;93.10
22006;DHT22;11167;46.988;15.470;2022-12-07T02:11:10;5.40;93.10
22006;DHT22;11167;46.988;15.470;2022-12-07T02:13:24;5.40;93.10
22006;DHT22;11167;46.988;15.470;2022-12-07T02:15:32;5.40;93.10
22006;DHT22;11167;46.988;15.470;2022-12-07T02:17:37;5.40;93.10
22006;DHT22;11167;46.988;15.470;2022-12-07T02:29:18;5.30;93.10
22006;DHT22;11167;46.988;15.470;2022-12-07T02:31:20;5.30;93.10
22006;DHT22;11167;46.988;15.470;2022-12-07T02:33:35;5.30;93.10
22006;DHT22;11167;46.988;15.470;2022-12-07T02:35:55;5.30;93.10
22006;DHT22;11167;46.988;15.470;2022-12-07T02:38:08;5.30;93.10
22006;DHT22;11167;46.988;15.470;2022-12-07T02:40:11;5.30;93.10
22006;DHT22;11167;46.988;15.470;2022-12-07T02:42:15;5.30;93.10
22006;DHT22;11167;46.988;15.470;2022-12-07T02:44:22;5.20;93.10
22006;DHT22;11167;46.988;15.470;2022-12-07T02:46:30;5.20;93.10
22006;DHT22;11167;46.988;15.470;2022-12-07T02:48:33;5.20;93.10
22006;DHT22;11167;46.988;15.470;2022-12-07T02:50:34;5.20;93.10
22006;DHT22;11167;46.988;15.470;2022-12-07T02:52:35;5.20;93.10
22006;DHT22;11167;46.988;15.470;2022-12-07T02:54:37;5.20;93.10
22006;DHT22;11167;46.988;15.470;2022-12-07T02:56:55;5.20;93.10
22006;DHT22;11167;46.988;15.470;2022-12-07T03:01:22;5.20;93.00
22006;DHT22;11167;46.988;15.470;2022-12-07T03:03:21;5.20;93.00
22006;DHT22;11167;46.988;15.470;2022-12-07T03:08:02;5.20;93.10
22006;DHT22;11167;46.988;15.470;2022-12-07T03:10:09;5.20;93.10
22006;DHT22;11167;46.988;15.470;2022-12-07T03:12:20;5.10;93.00
22006;DHT22;11167;46.988;15.470;2022-12-07T03:14:21;5.10;93.00
22006;DHT22;11167;46.988;15.470;2022-12-07T03:16:27;5.10;93.10
22006;DHT22;11167;46.988;15.470;2022-12-07T03:18:35;5.10;93.10
22006;DHT22;11167;46.988;15.470;2022-12-07T03:20:39;5.10;93.00
22006;DHT22;11167;46.988;15.470;2022-12-07T03:22:44;5.10;93.10
22006;DHT22;11167;46.988;15.470;2022-12-07T03:24:55;5.10;93.10
22006;DHT22;11167;46.988;15.470;2022-12-07T03:27:05;5.10;93.00
22006;DHT22;11167;46.988;15.470;2022-12-07T03:29:11;5.10;93.00
22006;DHT22;11167;46.988;15.470;2022-12-07T03:31:21;5.10;93.00
22006;DHT22;11167;46.988;15.470;2022-12-07T03:33:31;5.10;93.10
22006;DHT22;11167;46.988;15.470;2022-12-07T03:35:38;5.10;93.10
22006;DHT22;11167;46.988;15.470;2022-12-07T03:37:46;5.10;93.10
22006;DHT22;11167;46.988;15.470;2022-12-07T03:42:16;5.10;93.10
22006;DHT22;11167;46.988;15.470;2022-12-07T03:44:18;5.00;93.00
22006;DHT22;11167;46.988;15.470;2022-12-07T03:49:27;5.00;93.10
22006;DHT22;11167;46.988;15.470;2022-12-07T03:51:37;5.00;93.00
22006;DHT22;11167;46.988;15.470;2022-12-07T03:53:44;5.00;93.10
22006;DHT22;11167;46.988;15.470;2022-12-07T03:55:46;5.00;93.10
22006;DHT22;11167;46.988;15.470;2022-12-07T03:57:51;5.00;93.10
22006;DHT22;11167;46.988;15.470;2022-12-07T03:59:55;5.00;93.10
22006;DHT22;11167;46.988;15.470;2022-12-07T04:02:02;5.00;93.10
22006;DHT22;11167;46.988;15.470;2022-12-07T04:04:03;5.00;93.10
22006;DHT22;11167;46.988;15.470;2022-12-07T04:06:05;5.00;93.00
22006;DHT22;11167;46.988;15.470;2022-12-07T04:08:06;5.00;93.10
22006;DHT22;11167;46.988;15.470;2022-12-07T04:10:08;4.90;93.00
22006;DHT22;11167;46.988;15.470;2022-12-07T04:12:10;4.90;93.00
22006;DHT22;11167;46.988;15.470;2022-12-07T04:14:11;4.90;93.00
22006;DHT22;11167;46.988;15.470;2022-12-07T04:16:22;4.90;93.00
22006;DHT22;11167;46.988;15.470;2022-12-07T04:18:23;4.90;93.00
22006;DHT22;11167;46.988;15.470;2022-12-07T04:20:30;4.90;93.00
22006;DHT22;11167;46.988;15.470;2022-12-07T04:22:31;4.90;93.00
22006;DHT22;11167;46.988;15.470;2022-12-07T04:24:33;4.90;93.00
22006;DHT22;11167;46.988;15.470;2022-12-07T04:26:34;4.90;93.00
22006;DHT22;11167;46.988;15.470;2022-12-07T04:28:35;4.90;93.00
22006;DHT22;11167;46.988;15.470;2022-12-07T04:30:37;4.90;93.00
22006;DHT22;11167;46.988;15.470;2022-12-07T04:32:38;4.90;93.00
22006;DHT22;11167;46.988;15.470;2022-12-07T04:34:39;4.90;93.00
22006;DHT22;11167;46.988;15.470;2022-12-07T04:36:41;4.90;93.00
22006;DHT22;11167;46.988;15.470;2022-12-07T04:38:42;4.90;93.00
22006;DHT22;11167;46.988;15.470;2022-12-07T04:40:44;4.90;93.00
22006;DHT22;11167;46.988;15.470;2022-12-07T04:42:45;4.90;93.00
22006;DHT22;11167;46.988;15.470;2022-12-07T04:44:46;4.90;93.00
22006;DHT22;11167;46.988;15.470;2022-12-07T04:46:47;4.80;92.90
22006;DHT22;11167;46.988;15.470;2022-12-07T04:48:49;4.80;92.90
22006;DHT22;11167;46.988;15.470;2022-12-07T04:50:50;4.80;92.90
22006;DHT22;11167;46.988;15.470;2022-12-07T04:52:51;4.80;93.20
22006;DHT22;11167;46.988;15.470;2022-12-07T04:54:52;4.80;92.90
22006;DHT22;11167;46.988;15.470;2022-12-07T04:56:53;4.80;92.90
22006;DHT22;11167;46.988;15.470;2022-12-07T04:58:55;4.80;92.90
22006;DHT22;11167;46.988;15.470;2022-12-07T05:00:56;4.80;93.00
22006;DHT22;11167;46.988;15.470;2022-12-07T05:02:57;4.80;92.90
22006;DHT22;11167;46.988;15.470;2022-12-07T05:04:58;4.80;92.90
22006;DHT22;11167;46.988;15.470;2022-12-07T05:06:59;4.80;92.90
22006;DHT22;11167;46.988;15.470;2022-12-07T05:09:01;4.80;92.90
22006;DHT22;11167;46.988;15.470;2022-12-07T05:11:04;4.70;92.80
22006;DHT22;11167;46.988;15.470;2022-12-07T05:13:06;4.80;92.90
22006;DHT22;11167;46.988;15.470;2022-12-07T05:15:07;4.70;92.80
22006;DHT22;11167;46.988;15.470;2022-12-07T05:17:08;4.70;92.90
22006;DHT22;11167;46.988;15.470;2022-12-07T05:19:10;4.70;92.80
22006;DHT22;11167;46.988;15.470;2022-12-07T05:21:11;4.70;92.80
22006;DHT22;11167;46.988;15.470;2022-12-07T05:23:12;4.70;92.80
22006;DHT22;11167;46.988;15.470;2022-12-07T05:25:13;4.70;93.20
22006;DHT22;11167;46.988;15.470;2022-12-07T05:27:14;4.70;92.80
22006;DHT22;11167;46.988;15.470;2022-12-07T05:29:16;4.70;92.80
22006;DHT22;11167;46.988;15.470;2022-12-07T05:31:18;4.70;92.80
22006;DHT22;11167;46.988;15.470;2022-12-07T05:33:19;4.70;92.80
22006;DHT22;11167;46.988;15.470;2022-12-07T05:35:21;4.70;92.80
22006;DHT22;11167;46.988;15.470;2022-12-07T05:37:22;4.60;92.60
22006;DHT22;11167;46.988;15.470;2022-12-07T05:39:23;4.60;92.80
22006;DHT22;11167;46.988;15.470;2022-12-07T05:41:24;4.60;92.80
22006;DHT22;11167;46.988;15.470;2022-12-07T05:43:44;4.60;92.80
22006;DHT22;11167;46.988;15.470;2022-12-07T05:45:45;4.60;92.80
22006;DHT22;11167;46.988;15.470;2022-12-07T05:47:46;4.60;92.80
22006;DHT22;11167;46.988;15.470;2022-12-07T05:49:48;4.60;92.80
22006;DHT22;11167;46.988;15.470;2022-12-07T05:51:49;4.60;92.80
22006;DHT22;11167;46.988;15.470;2022-12-07T05:53:50;4.60;92.80
22006;DHT22;11167;46.988;15.470;2022-12-07T05:55:52;4.60;92.80
22006;DHT22;11167;46.988;15.470;2022-12-07T05:57:53;4.60;92.80
22006;DHT22;11167;46.988;15.470;2022-12-07T06:00:13;4.60;92.80
22006;DHT22;11167;46.988;15.470;2022-12-07T06:02:16;4.50;92.80
22006;DHT22;11167;46.988;15.470;2022-12-07T06:04:17;4.50;92.80
22006;DHT22;11167;46.988;15.470;2022-12-07T06:06:18;4.50;92.80
22006;DHT22;11167;46.988;15.470;2022-12-07T06:08:20;4.50;92.80
22006;DHT22;11167;46.988;15.470;2022-12-07T06:10:21;4.50;92.80
22006;DHT22;11167;46.988;15.470;2022-12-07T06:12:22;4.50;93.20
22006;DHT22;11167;46.988;15.470;2022-12-07T06:14:35;4.50;92.80
22006;DHT22;11167;46.988;15.470;2022-12-07T06:16:36;4.50;92.80
22006;DHT22;11167;46.988;15.470;2022-12-07T06:18:37;4.50;92.80
22006;DHT22;11167;46.988;15.470;2022-12-07T06:20:38;4.50;92.80
22006;DHT22;11167;46.988;15.470;2022-12-07T06:22:40;4.50;92.90
22006;DHT22;11167;46.988;15.470;2022-12-07T06:24:41;4.50;92.80
22006;DHT22;11167;46.988;15.470;2022-12-07T06:26:42;4.50;92.80
22006;DHT22;11167;46.988;15.470;2022-12-07T06:28:44;4.50;92.90
22006;DHT22;11167;46.988;15.470;2022-12-07T06:30:45;4.50;92.80
22006;DHT22;11167;46.988;15.470;2022-12-07T06:33:24;4.50;92.80
22006;DHT22;11167;46.988;15.470;2022-12-07T06:35:33;4.50;92.80
22006;DHT22;11167;46.988;15.470;2022-12-07T06:37:34;4.40;92.80
22006;DHT22;11167;46.988;15.470;2022-12-07T06:39:35;4.40;92.80
22006;DHT22;11167;46.988;15.470;2022-12-07T06:41:38;4.40;92.80
22006;DHT22;11167;46.988;15.470;2022-12-07T06:43:39;4.40;92.90
22006;DHT22;11167;46.988;15.470;2022-12-07T06:45:41;4.40;92.90
22006;DHT22;11167;46.988;15.470;2022-12-07T06:47:43;4.40;92.90
22006;DHT22;11167;46.988;15.470;2022-12-07T06:49:44;4.40;92.90
22006;DHT22;11167;46.988;15.470;2022-12-07T06:51:45;4.40;92.90
22006;DHT22;11167;46.988;15.470;2022-12-07T06:53:46;4.40;92.90
22006;DHT22;11167;46.988;15.470;2022-12-07T06:55:47;4.40;93.30
22006;DHT22;11167;46.988;15.470;2022-12-07T06:57:48;4.40;92.90
22006;DHT22;11167;46.988;15.470;2022-12-07T06:59:49;4.40;92.90
22006;DHT22;11167;46.988;15.470;2022-12-07T07:01:51;4.40;92.90
22006;DHT22;11167;46.988;15.470;2022-12-07T07:03:52;4.40;92.90
22006;DHT22;11167;46.988;15.470;2022-12-07T07:05:53;4.40;92.90
22006;DHT22;11167;46.988;15.470;2022-12-07T07:07:54;4.40;92.90
22006;DHT22;11167;46.988;15.470;2022-12-07T07:09:55;4.40;92.90
22006;DHT22;11167;46.988;15.470;2022-12-07T07:11:57;4.40;92.90
22006;DHT22;11167;46.988;15.470;2022-12-07T07:13:58;4.40;92.90
22006;DHT22;11167;46.988;15.470;2022-12-07T07:16:01;4.40;92.90
22006;DHT22;11167;46.988;15.470;2022-12-07T07:18:03;4.40;92.80
22006;DHT22;11167;46.988;15.470;2022-12-07T07:20:05;4.40;92.80
22006;DHT22;11167;46.988;15.470;2022-12-07T07:22:06;4.40;92.80
22006;DHT22;11167;46.988;15.470;2022-12-07T07:24:08;4.40;92.80
22006;DHT22;11167;46.988;15.470;2022-12-07T07:26:09;4.40;92.80
22006;DHT22;11167;46.988;15.470;2022-12-07T07:28:10;4.40;92.90
22006;DHT22;11167;46.988;15.470;2022-12-07T07:30:12;4.40;92.90
22006;DHT22;11167;46.988;15.470;2022-12-07T07:32:13;4.40;92.90
22006;DHT22;11167;46.988;15.470;2022-12-07T07:34:14;4.40;92.90
22006;DHT22;11167;46.988;15.470;2022-12-07T07:36:15;4.40;92.90
22006;DHT22;11167;46.988;15.470;2022-12-07T07:38:16;4.30;92.90
22006;DHT22;11167;46.988;15.470;2022-12-07T07:40:17;4.30;92.90
22006;DHT22;11167;46.988;15.470;2022-12-07T07:42:19;4.30;92.90
22006;DHT22;11167;46.988;15.470;2022-12-07T07:44:20;4.30;92.90
22006;DHT22;11167;46.988;15.470;2022-12-07T07:46:21;4.30;92.90
22006;DHT22;11167;46.988;15.470;2022-12-07T07:48:22;4.30;92.90
22006;DHT22;11167;46.988;15.470;2022-12-07T07:50:25;4.30;93.00
22006;DHT22;11167;46.988;15.470;2022-12-07T07:52:26;4.30;93.00
22006;DHT22;11167;46.988;15.470;2022-12-07T07:54:28;4.30;93.00
22006;DHT22;11167;46.988;15.470;2022-12-07T07:56:29;4.30;92.90
22006;DHT22;11167;46.988;15.470;2022-12-07T07:58:30;4.30;93.00
22006;DHT22;11167;46.988;15.470;2022-12-07T08:00:31;4.30;93.00
22006;DHT22;11167;46.988;15.470;2022-12-07T08:02:32;4.30;93.00
22006;DHT22;11167;46.988;15.470;2022-12-07T08:04:34;4.30;93.10
22006;DHT22;11167;46.988;15.470;2022-12-07T08:06:36;4.30;93.00
22006;DHT22;11167;46.988;15.470;2022-12-07T08:08:37;4.30;93.00
22006;DHT22;11167;46.988;15.470;2022-12-07T08:10:39;4.30;93.00
22006;DHT22;11167;46.988;15.470;2022-12-07T08:12:41;4.30;93.00
22006;DHT22;11167;46.988;15.470;2022-12-07T08:15:01;4.30;93.00
22006;DHT22;11167;46.988;15.470;2022-12-07T08:17:03;4.30;93.10
22006;DHT22;11167;46.988;15.470;2022-12-07T08:19:07;4.30;93.10
22006;DHT22;11167;46.988;15.470;2022-12-07T08:21:09;4.30;93.10
22006;DHT22;11167;46.988;15.470;2022-12-07T08:23:11;4.30;93.10
22006;DHT22;11167;46.988;15.470;2022-12-07T08:25:12;4.30;93.10
22006;DHT22;11167;46.988;15.470;2022-12-07T08:27:13;4.30;93.10
22006;DHT22;11167;46.988;15.470;2022-12-07T08:29:14;4.30;93.10
22006;DHT22;11167;46.988;15.470;2022-12-07T08:31:17;4.30;93.10
22006;DHT22;11167;46.988;15.470;2022-12-07T08:33:19;4.30;93.10
22006;DHT22;11167;46.988;15.470;2022-12-07T08:35:23;4.30;93.10
22006;DHT22;11167;46.988;15.470;2022-12-07T08:37:24;4.30;93.10
22006;DHT22;11167;46.988;15.470;2022-12-07T08:39:25;4.30;93.10
22006;DHT22;11167;46.988;15.470;2022-12-07T08:41:26;4.40;93.20
22006;DHT22;11167;46.988;15.470;2022-12-07T08:43:27;4.30;93.10
22006;DHT22;11167;46.988;15.470;2022-12-07T08:45:30;4.30;92.90
22006;DHT22;11167;46.988;15.470;2022-12-07T08:47:35;4.30;93.10
22006;DHT22;11167;46.988;15.470;2022-12-07T08:49:41;4.30;93.20
22006;DHT22;11167;46.988;15.470;2022-12-07T08:51:44;4.30;93.10
22006;DHT22;11167;46.988;15.470;2022-12-07T08:53:45;4.30;93.10
22006;DHT22;11167;46.988;15.470;2022-12-07T08:55:47;4.30;93.10
22006;DHT22;11167;46.988;15.470;2022-12-07T08:57:49;4.30;93.10
22006;DHT22;11167;46.988;15.470;2022-12-07T08:59:51;4.30;93.10
22006;DHT22;11167;46.988;15.470;2022-12-07T09:01:52;4.30;93.10
22006;DHT22;11167;46.988;15.470;2022-12-07T09:03:53;4.30;93.10
22006;DHT22;11167;46.988;15.470;2022-12-07T09:05:55;4.30;93.10
22006;DHT22;11167;46.988;15.470;2022-12-07T09:07:58;4.30;93.10
22006;DHT22;11167;46.988;15.470;2022-12-07T09:10:07;4.30;93.10
22006;DHT22;11167;46.988;15.470;2022-12-07T09:12:08;4.30;93.20
22006;DHT22;11167;46.988;15.470;2022-12-07T09:14:11;4.30;93.20
22006;DHT22;11167;46.988;15.470;2022-12-07T09:16:13;4.30;93.20
22006;DHT22;11167;46.988;15.470;2022-12-07T09:18:14;4.30;93.30
22006;DHT22;11167;46.988;15.470;2022-12-07T09:20:15;4.30;93.30
22006;DHT22;11167;46.988;15.470;2022-12-07T09:22:16;4.30;93.20
22006;DHT22;11167;46.988;15.470;2022-12-07T09:24:17;4.30;93.20
22006;DHT22;11167;46.988;15.470;2022-12-07T09:26:19;4.30;93.20
22006;DHT22;11167;46.988;15.470;2022-12-07T09:28:20;4.30;93.20
22006;DHT22;11167;46.988;15.470;2022-12-07T09:30:21;4.30;93.30
22006;DHT22;11167;46.988;15.470;2022-12-07T09:32:22;4.30;93.20
22006;DHT22;11167;46.988;15.470;2022-12-07T09:34:23;4.30;93.30
22006;DHT22;11167;46.988;15.470;2022-12-07T09:36:25;4.30;93.20
22006;DHT22;11167;46.988;15.470;2022-12-07T09:38:27;4.40;93.30
22006;DHT22;11167;46.988;15.470;2022-12-07T09:40:30;4.40;93.20
22006;DHT22;11167;46.988;15.470;2022-12-07T09:42:34;4.40;93.20
22006;DHT22;11167;46.988;15.470;2022-12-07T09:44:36;4.40;93.30
22006;DHT22;11167;46.988;15.470;2022-12-07T09:46:40;4.40;93.30
22006;DHT22;11167;46.988;15.470;2022-12-07T09:48:41;4.40;93.60
22006;DHT22;11167;46.988;15.470;2022-12-07T09:50:43;4.40;93.40
22006;DHT22;11167;46.988;15.470;2022-12-07T09:52:45;4.40;93.30
22006;DHT22;11167;46.988;15.470;2022-12-07T09:54:49;4.40;93.30
22006;DHT22;11167;46.988;15.470;2022-12-07T09:56:51;4.40;93.40
22006;DHT22;11167;46.988;15.470;2022-12-07T09:59:00;4.40;93.40
22006;DHT22;11167;46.988;15.470;2022-12-07T10:01:20;4.50;93.40
22006;DHT22;11167;46.988;15.470;2022-12-07T10:03:22;4.40;93.40
22006;DHT22;11167;46.988;15.470;2022-12-07T10:05:36;4.40;93.40
22006;DHT22;11167;46.988;15.470;2022-12-07T10:07:37;4.40;93.80
22006;DHT22;11167;46.988;15.470;2022-12-07T10:09:39;4.40;93.40
22006;DHT22;11167;46.988;15.470;2022-12-07T10:14:12;4.40;93.50
22006;DHT22;11167;46.988;15.470;2022-12-07T10:18:32;4.50;93.50
22006;DHT22;11167;46.988;15.470;2022-12-07T10:20:34;4.50;93.70
22006;DHT22;11167;46.988;15.470;2022-12-07T10:22:35;4.50;93.60
22006;DHT22;11167;46.988;15.470;2022-12-07T10:24:38;4.50;93.50
22006;DHT22;11167;46.988;15.470;2022-12-07T10:26:52;4.50;93.60
22006;DHT22;11167;46.988;15.470;2022-12-07T10:28:55;4.50;93.90
22006;DHT22;11167;46.988;15.470;2022-12-07T10:31:01;4.50;93.60
22006;DHT22;11167;46.988;15.470;2022-12-07T10:33:15;4.50;93.50
22006;DHT22;11167;46.988;15.470;2022-12-07T10:35:21;4.50;93.50
22006;DHT22;11167;46.988;15.470;2022-12-07T10:37:22;4.50;93.50
22006;DHT22;11167;46.988;15.470;2022-12-07T10:39:25;4.50;93.50
22006;DHT22;11167;46.988;15.470;2022-12-07T10:41:26;4.50;93.50
22006;DHT22;11167;46.988;15.470;2022-12-07T10:43:28;4.50;93.50
22006;DHT22;11167;46.988;15.470;2022-12-07T10:45:29;4.60;93.50
22006;DHT22;11167;46.988;15.470;2022-12-07T10:47:46;4.50;93.50
22006;DHT22;11167;46.988;15.470;2022-12-07T10:50:10;4.60;93.50
22006;DHT22;11167;46.988;15.470;2022-12-07T11:04:20;4.60;93.60
22006;DHT22;11167;46.988;15.470;2022-12-07T11:08:44;4.60;93.60
22006;DHT22;11167;46.988;15.470;2022-12-07T11:10:55;4.60;93.70
22006;DHT22;11167;46.988;15.470;2022-12-07T11:15:18;4.60;93.60
22006;DHT22;11167;46.988;15.470;2022-12-07T11:19:55;4.70;93.70
22006;DHT22;11167;46.988;15.470;2022-12-07T11:21:58;4.70;93.70
22006;DHT22;11167;46.988;15.470;2022-12-07T11:24:08;4.70;93.70
22006;DHT22;11167;46.988;15.470;2022-12-07T11:28:41;4.70;93.70
22006;DHT22;11167;46.988;15.470;2022-12-07T11:35:15;4.70;93.70
22006;DHT22;11167;46.988;15.470;2022-12-07T11:37:20;4.80;93.80
22006;DHT22;11167;46.988;15.470;2022-12-07T11:39:28;4.80;93.70
22006;DHT22;11167;46.988;15.470;2022-12-07T11:41:35;4.80;93.80
22006;DHT22;11167;46.988;15.470;2022-12-07T11:43:34;4.80;93.70
22006;DHT22;11167;46.988;15.470;2022-12-07T11:45:40;4.80;93.80
22006;DHT22;11167;46.988;15.470;2022-12-07T11:50:14;4.80;93.80
22006;DHT22;11167;46.988;15.470;2022-12-07T11:54:46;4.90;93.80
22006;DHT22;11167;46.988;15.470;2022-12-07T11:56:50;4.90;93.80
22006;DHT22;11167;46.988;15.470;2022-12-07T12:01:42;4.90;93.90
22006;DHT22;11167;46.988;15.470;2022-12-07T12:03:12;4.90;93.90
22006;DHT22;11167;46.988;15.470;2022-12-07T12:05:20;4.90;93.90
22006;DHT22;11167;46.988;15.470;2022-12-07T12:07:23;4.90;93.90
22006;DHT22;11167;46.988;15.470;2022-12-07T12:09:34;4.90;93.90
22006;DHT22;11167;46.988;15.470;2022-12-07T12:12:12;5.00;93.90
22006;DHT22;11167;46.988;15.470;2022-12-07T12:16:59;5.00;93.90
22006;DHT22;11167;46.988;15.470;2022-12-07T12:19:10;5.00;93.90
22006;DHT22;11167;46.988;15.470;2022-12-07T12:21:11;5.00;93.90
22006;DHT22;11167;46.988;15.470;2022-12-07T12:23:12;5.00;94.00
22006;DHT22;11167;46.988;15.470;2022-12-07T12:25:20;5.10;94.00
22006;DHT22;11167;46.988;15.470;2022-12-07T12:27:25;5.10;94.00
22006;DHT22;11167;46.988;15.470;2022-12-07T12:29:35;5.00;94.00
22006;DHT22;11167;46.988;15.470;2022-12-07T12:31:40;5.10;94.00
22006;DHT22;11167;46.988;15.470;2022-12-07T12:33:51;5.10;94.00
22006;DHT22;11167;46.988;15.470;2022-12-07T12:38:32;5.10;94.00
22006;DHT22;11167;46.988;15.470;2022-12-07T12:40:39;5.20;94.00
22006;DHT22;11167;46.988;15.470;2022-12-07T12:42:56;5.20;94.00
22006;DHT22;11167;46.988;15.470;2022-12-07T12:45:17;5.20;94.00
22006;DHT22;11167;46.988;15.470;2022-12-07T12:47:40;5.20;94.00
22006;DHT22;11167;46.988;15.470;2022-12-07T12:49:41;5.20;94.00
22006;DHT22;11167;46.988;15.470;2022-12-07T12:51:45;5.30;94.10
22006;DHT22;11167;46.988;15.470;2022-12-07T12:53:50;5.30;94.10
22006;DHT22;11167;46.988;15.470;2022-12-07T13:00:22;5.30;94.10
22006;DHT22;11167;46.988;15.470;2022-12-07T13:02:33;5.40;94.10
22006;DHT22;11167;46.988;15.470;2022-12-07T13:04:53;5.40;94.10
22006;DHT22;11167;46.988;15.470;2022-12-07T13:06:55;5.40;94.10
22006;DHT22;11167;46.988;15.470;2022-12-07T13:08:58;5.40;94.10
22006;DHT22;11167;46.988;15.470;2022-12-07T13:13:28;5.40;94.10
22006;DHT22;11167;46.988;15.470;2022-12-07T13:17:56;5.50;94.20
22006;DHT22;11167;46.988;15.470;2022-12-07T13:20:05;5.50;94.10
22006;DHT22;11167;46.988;15.470;2022-12-07T13:24:35;5.50;94.10
22006;DHT22;11167;46.988;15.470;2022-12-07T13:26:39;5.50;94.10
22006;DHT22;11167;46.988;15.470;2022-12-07T13:28:42;5.50;94.10
22006;DHT22;11167;46.988;15.470;2022-12-07T13:30:53;5.50;94.20
22006;DHT22;11167;46.988;15.470;2022-12-07T13:32:55;5.50;94.10
22006;DHT22;11167;46.988;15.470;2022-12-07T13:34:56;5.60;94.20
22006;DHT22;11167;46.988;15.470;2022-12-07T13:39:24;5.50;94.10
22006;DHT22;11167;46.988;15.470;2022-12-07T13:41:31;5.60;94.20
22006;DHT22;11167;46.988;15.470;2022-12-07T13:43:29;5.60;94.20
22006;DHT22;11167;46.988;15.470;2022-12-07T13:45:32;5.70;94.20
22006;DHT22;11167;46.988;15.470;2022-12-07T13:47:54;5.70;94.20
22006;DHT22;11167;46.988;15.470;2022-12-07T13:49:56;5.70;94.20
22006;DHT22;11167;46.988;15.470;2022-12-07T13:52:25;5.70;94.20
22006;DHT22;11167;46.988;15.470;2022-12-07T13:54:13;5.70;94.20
22006;DHT22;11167;46.988;15.470;2022-12-07T13:56:14;5.70;94.20
22006;DHT22;11167;46.988;15.470;2022-12-07T13:58:17;5.80;94.20
22006;DHT22;11167;46.988;15.470;2022-12-07T14:00:20;5.70;94.20
22006;DHT22;11167;46.988;15.470;2022-12-07T14:02:24;5.80;94.20
22006;DHT22;11167;46.988;15.470;2022-12-07T14:04:33;5.80;94.20
22006;DHT22;11167;46.988;15.470;2022-12-07T14:06:35;5.80;94.20
22006;DHT22;11167;46.988;15.470;2022-12-07T14:08:36;5.80;94.20
22006;DHT22;11167;46.988;15.470;2022-12-07T14:10:53;5.80;94.20
22006;DHT22;11167;46.988;15.470;2022-12-07T14:12:44;5.80;94.20
22006;DHT22;11167;46.988;15.470;2022-12-07T14:14:49;5.80;94.20
22006;DHT22;11167;46.988;15.470;2022-12-07T14:17:09;5.80;94.20
22006;DHT22;11167;46.988;15.470;2022-12-07T14:23:24;5.90;94.20
22006;DHT22;11167;46.988;15.470;2022-12-07T14:25:27;5.90;94.20